Red Wing, Minnesota
Current Conditions -  °F | °C
As of 10:14 PM on Sunday 23 Nov 2014 (Local Time) from KSYN Reporting Station
Moderate Rain Moderate Rain  
Wind Chill: 27°   Ceiling: 1000
Heat Index: 37°   Visibility: 5mi
Dew Point: 33°   Wind: 16mph
Humidity: 88%   Direction: 310°NW
Pressure: 29.33"   Gusts: 23mph
Location:  44.57°N, 92.53°W
Report Text: KSYN 240414Z AUTO 31014G20KT 5SM RA OVC010 03/01 A2933 RMK AO2 P0001 T00250007
Loading
Personal Weather Stations






























Interactive Weather Map New forecast layout! Learn more

10-Day Weather Forecast

Advertisements
Track Severe Weather on mobile